• Join FlightAware (Why Join?)
  • Login
  • US Flag 
04:33PM EDT


 

Airport Tracker/Info


-or-


 

Live Flight TrackerFlight Track Log ✈ LXJ342 ✈ 05-May-2013 ✈ KRSW - KECP

Flight Track Log - Related Links

Times and Time Zones

All times are in EDT time to prevent confusion due to time zone crossing. See the LXJ342 flight status page for this flight to view local times or setup timezone preferences in your user account.

Time Position Orientation Groundspeed Altitude Reporting Facility
EDT Latitude Longitude Course Direction KTS MPH feet Rate Location/Type
03:50PM 26.6450 -81.7092 360° North 250 288 7,800  Level Miami Center
03:52PM 26.7343 -81.8027 North  Level Estimated
03:52PM 26.8303 -81.7261 North 324 373 13,800  Level Miami Center
03:53PM 26.9364 -81.7378 354° North 358 412 16,800 1,800 Climbing Miami Center
03:54PM 27.0444 -81.7539 352° North 382 440 17,400 1,800 Climbing Miami Center
03:55PM 27.0135 -82.2377 318° Northwest  Level Estimated
03:55PM 27.1539 -81.7864 345° North 402 463 20,400  Level Miami Center
03:56PM 27.2531 -81.8211 343° North 407 468 22,700 2,100 Climbing Miami Center
03:57PM 27.3686 -81.8586 344° North 415 478 24,600 2,100 Climbing Miami Center
03:58PM 27.4964 -81.9039 343° North 420 483 26,900 2,400 Climbing Miami Center
03:59PM 27.6075 -81.9442 342° North 426 490 29,400 1,200 Climbing Miami Center
04:02PM 27.9111 -82.0119 349° North 451 519 31,100 720 Climbing Jacksonville Center
04:03PM 28.0322 -82.0367 350° North 446 513 32,000 420 Climbing Jacksonville Center
04:04PM 28.1372 -82.1042 330° Northwest 436 502 32,000  Level Jacksonville Center
04:05PM 28.2336 -82.1833 324° Northwest 425 489 32,000  Level Jacksonville Center
04:06PM 28.3008 -82.2892 306° West 405 466 32,000  Level Jacksonville Center
04:07PM 28.3681 -82.3972 305° West 416 479 32,000  Level Jacksonville Center
04:08PM 28.4353 -82.5053 305° West 421 484 32,000  Level Jacksonville Center
04:09PM 28.5022 -82.6186 304° West 426 490 32,000  Level Jacksonville Center
04:10PM 28.5672 -82.7272 304° West 426 490 32,000  Level Jacksonville Center
04:11PM 28.6342 -82.8381 305° West 426 490 32,000  Level Jacksonville Center
04:12PM 28.6967 -82.9422 304° West 421 484 32,000  Level Jacksonville Center
04:13PM 28.7633 -83.0536 304° West 415 478 32,000 -120 Level Jacksonville Center
04:14PM 28.8300 -83.1628 305° West 420 483 31,800 -600 Descending Jacksonville Center
04:15PM 28.8964 -83.2744 304° West 420 483 30,800 -1,020 Descending Jacksonville Center
04:16PM 28.9608 -83.3814 305° West 420 483 29,800 -900 Descending Jacksonville Center
04:17PM 29.0189 -83.4792 304° West 420 483 29,000 -900 Descending Jacksonville Center
04:18PM 29.0789 -83.5839 303° West 415 478 28,000 -540 Descending Jacksonville Center
04:19PM 29.1389 -83.6842 304° West 410 472 28,000 -60 Level Jacksonville Center
04:20PM 29.2008 -83.7869 305° West 400 460 27,900 -540 Descending Jacksonville Center
04:21PM 29.2606 -83.8922 303° West 393 452 27,000 -480 Descending Jacksonville Center
04:22PM 29.3203 -83.9931 304° West 393 452 27,000 -300 Level Jacksonville Center
04:23PM 29.3819 -84.0961 304° West 393 452 26,400 -900 Descending Jacksonville Center
04:24PM 29.4414 -84.1994 303° West 393 452 25,300 -1,080 Descending Jacksonville Center
04:25PM 29.4989 -84.2981 304° West 393 452 24,300 -1,020 Descending Jacksonville Center
04:26PM 29.5603 -84.4014 304° West 388 447 23,300 -1,020 Descending Jacksonville Center
04:27PM 29.6217 -84.5075 304° West 393 452 22,300 -660 Descending Jacksonville Center
04:28PM 29.6808 -84.6067 304° West 393 452 22,000 -180 Descending Jacksonville Center
04:29PM 29.7400 -84.7081 304° West 388 447 22,000 -360 Level Jacksonville Center
04:30PM 29.7992 -84.8122 303° West 388 447 21,300 -1,740 Descending Jacksonville Center
04:31PM 29.8539 -84.9136 302° West 388 447 18,600 -2,700 Descending Jacksonville Center
04:32PM 29.9128 -85.0133 304° West 383 441 16,000 -2,460 Descending Jacksonville Center
04:33PM 29.9656 -85.1031 304° West 360 414 13,700 -2,100 Descending Jacksonville Center
04:35PM 30.0525 -85.2539 304° West 292 336 9,700 -2,040 Descending Jacksonville Center
04:37PM 30.1436 -85.4281 305° West  Level FlightAware Approximate
04:44PM 30.3500 -85.7833 311° West  Level FlightAware Approximate
04:45PM 30.3582 -85.7956 311° West  Level Estimated
04:46PM 30.3582 -85.7956 311° West  Level Estimated
04:47PM 30.3582 -85.7956 311° West  Level Estimated
04:48PM 30.3582 -85.7956 311° West  Level Estimated
04:49PM 30.3582 -85.7956 311° West  Level Estimated
04:50PM 30.3582 -85.7956 311° West  Level Estimated
04:51PM 30.3582 -85.7956 311° West  Level Estimated
04:52PM 30.3582 -85.7956 311° West  Level Estimated
04:53PM 30.3582 -85.7956 311° West  Level Estimated
04:54PM 30.3582 -85.7956 311° West  Level Estimated